sensor_id;sensor_type;location;lat;lon;timestamp;pressure;altitude;pressure_sealevel;temperature;humidity
59654;BME280;66556;52.008;5.432;2023-03-23T00:01:12;100217.0;;;22.54;46.45
59654;BME280;66556;52.008;5.432;2023-03-23T00:04:25;100225.0;;;23.0;45.86
59654;BME280;66556;52.008;5.432;2023-03-23T00:06:02;100226.0;;;22.93;45.87
59654;BME280;66556;52.008;5.432;2023-03-23T00:07:38;100220.0;;;22.48;46.64
59654;BME280;66556;52.008;5.432;2023-03-23T00:10:52;100209.0;;;23.03;45.55
59654;BME280;66556;52.008;5.432;2023-03-23T00:12:30;100207.0;;;23.22;45.04
59654;BME280;66556;52.008;5.432;2023-03-23T00:14:08;100202.0;;;23.1;45.27
59654;BME280;66556;52.008;5.432;2023-03-23T00:15:46;100195.0;;;23.22;44.6
59654;BME280;66556;52.008;5.432;2023-03-23T00:19:00;100199.0;;;23.12;44.63
59654;BME280;66556;52.008;5.432;2023-03-23T00:20:38;100191.0;;;22.47;46.17
59654;BME280;66556;52.008;5.432;2023-03-23T00:22:16;100187.0;;;22.11;46.73
59654;BME280;66556;52.008;5.432;2023-03-23T00:25:29;100177.0;;;21.7;47.84
59654;BME280;66556;52.008;5.432;2023-03-23T00:27:05;100174.0;;;22.05;47.31
59654;BME280;66556;52.008;5.432;2023-03-23T00:28:41;100185.0;;;22.1;47.17
59654;BME280;66556;52.008;5.432;2023-03-23T00:30:18;100192.0;;;22.42;46.26
59654;BME280;66556;52.008;5.432;2023-03-23T00:33:31;100190.0;;;22.18;47.17
59654;BME280;66556;52.008;5.432;2023-03-23T00:35:09;100181.0;;;22.5;46.71
59654;BME280;66556;52.008;5.432;2023-03-23T00:36:45;100174.0;;;22.39;47.06
59654;BME280;66556;52.008;5.432;2023-03-23T00:40:00;100175.0;;;22.51;46.89
59654;BME280;66556;52.008;5.432;2023-03-23T00:41:36;100176.0;;;22.24;46.66
59654;BME280;66556;52.008;5.432;2023-03-23T00:43:13;100183.0;;;22.73;45.68
59654;BME280;66556;52.008;5.432;2023-03-23T00:46:25;100167.0;;;22.8;45.64
59654;BME280;66556;52.008;5.432;2023-03-23T00:48:01;100174.0;;;22.2;46.02
59654;BME280;66556;52.008;5.432;2023-03-23T00:49:38;100165.0;;;22.63;45.54
59654;BME280;66556;52.008;5.432;2023-03-23T00:51:14;100170.0;;;22.06;46.59
59654;BME280;66556;52.008;5.432;2023-03-23T00:54:27;100144.0;;;22.58;46.11
59654;BME280;66556;52.008;5.432;2023-03-23T00:56:04;100139.0;;;22.48;45.59
59654;BME280;66556;52.008;5.432;2023-03-23T00:57:41;100130.0;;;22.78;45.26
59654;BME280;66556;52.008;5.432;2023-03-23T01:00:54;100125.0;;;22.57;45.55
59654;BME280;66556;52.008;5.432;2023-03-23T01:02:30;100138.0;;;22.49;45.21
59654;BME280;66556;52.008;5.432;2023-03-23T01:04:08;100130.0;;;22.47;45.68
59654;BME280;66556;52.008;5.432;2023-03-23T01:07:22;100130.0;;;22.82;44.32
59654;BME280;66556;52.008;5.432;2023-03-23T01:08:58;100130.0;;;22.91;44.47
59654;BME280;66556;52.008;5.432;2023-03-23T01:10:35;100142.0;;;22.73;44.37
59654;BME280;66556;52.008;5.432;2023-03-23T01:12:11;100136.0;;;22.98;44.1
59654;BME280;66556;52.008;5.432;2023-03-23T01:15:23;100141.0;;;22.47;44.65
59654;BME280;66556;52.008;5.432;2023-03-23T01:16:59;100130.0;;;22.4;44.39
59654;BME280;66556;52.008;5.432;2023-03-23T01:18:36;100136.0;;;22.5;44.25
59654;BME280;66556;52.008;5.432;2023-03-23T01:21:51;100149.0;;;22.27;44.29
59654;BME280;66556;52.008;5.432;2023-03-23T01:23:27;100124.0;;;22.52;44.71
59654;BME280;66556;52.008;5.432;2023-03-23T01:25:03;100115.0;;;22.62;44.08
59654;BME280;66556;52.008;5.432;2023-03-23T01:28:16;100112.0;;;22.7;43.76
59654;BME280;66556;52.008;5.432;2023-03-23T01:29:52;100099.0;;;22.64;43.74
59654;BME280;66556;52.008;5.432;2023-03-23T01:31:28;100109.0;;;22.63;44.12
59654;BME280;66556;52.008;5.432;2023-03-23T01:33:04;100125.0;;;22.77;43.78
59654;BME280;66556;52.008;5.432;2023-03-23T01:36:19;100107.0;;;23.03;43.49
59654;BME280;66556;52.008;5.432;2023-03-23T01:37:57;100093.0;;;23.27;43.51
59654;BME280;66556;52.008;5.432;2023-03-23T01:39:33;100108.0;;;23.29;43.2
59654;BME280;66556;52.008;5.432;2023-03-23T01:42:50;100103.0;;;22.91;43.39
59654;BME280;66556;52.008;5.432;2023-03-23T01:45:25;100108.0;;;23.1;43.46
59654;BME280;66556;52.008;5.432;2023-03-23T01:47:01;100114.0;;;23.07;43.22
59654;BME280;66556;52.008;5.432;2023-03-23T01:48:39;100098.0;;;23.53;42.58
59654;BME280;66556;52.008;5.432;2023-03-23T01:50:16;100097.0;;;23.21;43.36
59654;BME280;66556;52.008;5.432;2023-03-23T01:51:54;100091.0;;;23.01;43.89
59654;BME280;66556;52.008;5.432;2023-03-23T01:55:17;100095.0;;;22.57;44.67
59654;BME280;66556;52.008;5.432;2023-03-23T01:56:55;100097.0;;;23.04;44.03
59654;BME280;66556;52.008;5.432;2023-03-23T01:58:37;100103.0;;;22.77;44.49
59654;BME280;66556;52.008;5.432;2023-03-23T02:01:51;100096.0;;;22.55;44.63
59654;BME280;66556;52.008;5.432;2023-03-23T02:03:29;100100.0;;;22.29;45.4
59654;BME280;66556;52.008;5.432;2023-03-23T02:05:12;100092.0;;;22.7;44.63
59654;BME280;66556;52.008;5.432;2023-03-23T02:06:50;100092.0;;;22.68;44.73
59654;BME280;66556;52.008;5.432;2023-03-23T02:10:05;100086.0;;;22.42;45.12
59654;BME280;66556;52.008;5.432;2023-03-23T02:11:41;100080.0;;;22.28;45.6
59654;BME280;66556;52.008;5.432;2023-03-23T02:13:18;100078.0;;;22.64;45.06
59654;BME280;66556;52.008;5.432;2023-03-23T02:14:55;100083.0;;;22.94;44.14
59654;BME280;66556;52.008;5.432;2023-03-23T02:18:26;100088.0;;;23.4;42.96
59654;BME280;66556;52.008;5.432;2023-03-23T02:20:27;100082.0;;;22.81;44.81
59654;BME280;66556;52.008;5.432;2023-03-23T02:22:22;100080.0;;;23.41;43.21
59654;BME280;66556;52.008;5.432;2023-03-23T02:25:51;100089.0;;;23.22;43.57
59654;BME280;66556;52.008;5.432;2023-03-23T02:27:46;100095.0;;;23.27;43.32
59654;BME280;66556;52.008;5.432;2023-03-23T02:30:09;100091.0;;;22.92;44.54
59654;BME280;66556;52.008;5.432;2023-03-23T02:32:11;100084.0;;;22.87;44.13
59654;BME280;66556;52.008;5.432;2023-03-23T02:33:54;100089.0;;;23.31;43.31
59654;BME280;66556;52.008;5.432;2023-03-23T02:37:18;100093.0;;;22.99;44.43
59654;BME280;66556;52.008;5.432;2023-03-23T02:39:02;100097.0;;;22.81;44.82
59654;BME280;66556;52.008;5.432;2023-03-23T02:40:43;100096.0;;;22.76;44.76
59654;BME280;66556;52.008;5.432;2023-03-23T02:42:25;100094.0;;;22.89;44.37
59654;BME280;66556;52.008;5.432;2023-03-23T02:45:43;100085.0;;;22.98;44.46
59654;BME280;66556;52.008;5.432;2023-03-23T02:47:23;100082.0;;;22.88;44.24
59654;BME280;66556;52.008;5.432;2023-03-23T02:49:02;100081.0;;;22.39;45.44
59654;BME280;66556;52.008;5.432;2023-03-23T02:50:43;100082.0;;;23.04;44.24
59654;BME280;66556;52.008;5.432;2023-03-23T02:54:04;100076.0;;;22.7;44.74
59654;BME280;66556;52.008;5.432;2023-03-23T02:55:43;100071.0;;;23.65;43.16
59654;BME280;66556;52.008;5.432;2023-03-23T02:57:20;100080.0;;;23.82;42.19
59654;BME280;66556;52.008;5.432;2023-03-23T02:58:58;100078.0;;;23.09;43.65
59654;BME280;66556;52.008;5.432;2023-03-23T03:02:14;100077.0;;;23.68;42.6
59654;BME280;66556;52.008;5.432;2023-03-23T03:03:54;100084.0;;;23.04;43.71
59654;BME280;66556;52.008;5.432;2023-03-23T03:05:38;100081.0;;;22.75;44.54
59654;BME280;66556;52.008;5.432;2023-03-23T03:07:30;100075.0;;;23.43;43.36
59654;BME280;66556;52.008;5.432;2023-03-23T03:09:29;100075.0;;;23.02;43.75
59654;BME280;66556;52.008;5.432;2023-03-23T03:12:55;100081.0;;;23.04;43.58
59654;BME280;66556;52.008;5.432;2023-03-23T03:14:37;100080.0;;;22.85;43.27
59654;BME280;66556;52.008;5.432;2023-03-23T03:16:23;100073.0;;;23.04;43.6
59654;BME280;66556;52.008;5.432;2023-03-23T03:18:08;100073.0;;;23.29;42.66
59654;BME280;66556;52.008;5.432;2023-03-23T03:19:50;100073.0;;;23.74;41.84
59654;BME280;66556;52.008;5.432;2023-03-23T03:23:11;100077.0;;;23.42;42.33
59654;BME280;66556;52.008;5.432;2023-03-23T03:24:50;100080.0;;;23.36;41.94
59654;BME280;66556;52.008;5.432;2023-03-23T03:26:28;100067.0;;;22.98;43.14
59654;BME280;66556;52.008;5.432;2023-03-23T03:28:06;100083.0;;;23.1;42.62
59654;BME280;66556;52.008;5.432;2023-03-23T03:31:23;100080.0;;;23.19;42.5
59654;BME280;66556;52.008;5.432;2023-03-23T03:33:04;100076.0;;;23.16;42.66
59654;BME280;66556;52.008;5.432;2023-03-23T03:34:41;100074.0;;;24.39;40.0
59654;BME280;66556;52.008;5.432;2023-03-23T03:38:05;100068.0;;;24.14;40.47
59654;BME280;66556;52.008;5.432;2023-03-23T03:39:41;100067.0;;;23.49;41.8
59654;BME280;66556;52.008;5.432;2023-03-23T03:41:18;100069.0;;;23.53;42.36
59654;BME280;66556;52.008;5.432;2023-03-23T03:42:55;100066.0;;;23.57;42.03
59654;BME280;66556;52.008;5.432;2023-03-23T03:46:08;100066.0;;;24.14;40.97
59654;BME280;66556;52.008;5.432;2023-03-23T03:47:45;100063.0;;;23.74;41.6
59654;BME280;66556;52.008;5.432;2023-03-23T03:49:21;100072.0;;;22.95;43.33
59654;BME280;66556;52.008;5.432;2023-03-23T03:52:34;100060.0;;;23.14;43.5
59654;BME280;66556;52.008;5.432;2023-03-23T03:54:11;100061.0;;;23.01;43.64
59654;BME280;66556;52.008;5.432;2023-03-23T03:55:46;100056.0;;;23.27;42.88
59654;BME280;66556;52.008;5.432;2023-03-23T03:57:23;100056.0;;;23.08;43.46
59654;BME280;66556;52.008;5.432;2023-03-23T04:00:35;100059.0;;;23.15;43.22
59654;BME280;66556;52.008;5.432;2023-03-23T04:02:11;100058.0;;;22.92;43.65
59654;BME280;66556;52.008;5.432;2023-03-23T04:03:47;100061.0;;;23.5;42.45
59654;BME280;66556;52.008;5.432;2023-03-23T04:06:59;100051.0;;;23.36;42.25
59654;BME280;66556;52.008;5.432;2023-03-23T04:08:36;100059.0;;;23.37;42.75
59654;BME280;66556;52.008;5.432;2023-03-23T04:10:13;100062.0;;;23.44;41.97
59654;BME280;66556;52.008;5.432;2023-03-23T04:13:25;100060.0;;;23.33;42.5
59654;BME280;66556;52.008;5.432;2023-03-23T04:15:01;100065.0;;;23.51;41.76
59654;BME280;66556;52.008;5.432;2023-03-23T04:16:38;100064.0;;;23.17;42.55
59654;BME280;66556;52.008;5.432;2023-03-23T04:19:53;100065.0;;;23.42;42.39
59654;BME280;66556;52.008;5.432;2023-03-23T04:21:29;100067.0;;;23.5;42.18
59654;BME280;66556;52.008;5.432;2023-03-23T04:23:05;100065.0;;;22.98;43.11
59654;BME280;66556;52.008;5.432;2023-03-23T04:24:42;100071.0;;;23.27;42.09
59654;BME280;66556;52.008;5.432;2023-03-23T04:27:54;100072.0;;;23.29;42.07
59654;BME280;66556;52.008;5.432;2023-03-23T04:29:30;100073.0;;;23.69;41.16
59654;BME280;66556;52.008;5.432;2023-03-23T04:31:06;100073.0;;;23.66;41.11
59654;BME280;66556;52.008;5.432;2023-03-23T04:34:18;100078.0;;;23.14;42.13
59654;BME280;66556;52.008;5.432;2023-03-23T04:35:57;100078.0;;;23.07;42.4
59654;BME280;66556;52.008;5.432;2023-03-23T04:37:36;100090.0;;;23.22;41.84
59654;BME280;66556;52.008;5.432;2023-03-23T04:39:14;100081.0;;;22.74;42.62
59654;BME280;66556;52.008;5.432;2023-03-23T04:42:29;100084.0;;;23.45;41.16
59654;BME280;66556;52.008;5.432;2023-03-23T04:44:06;100096.0;;;22.99;41.7
59654;BME280;66556;52.008;5.432;2023-03-23T04:45:43;100098.0;;;22.51;42.69
59654;BME280;66556;52.008;5.432;2023-03-23T04:48:56;100095.0;;;23.25;41.04
59654;BME280;66556;52.008;5.432;2023-03-23T04:50:32;100101.0;;;23.75;40.21
59654;BME280;66556;52.008;5.432;2023-03-23T04:52:09;100095.0;;;22.95;41.37
59654;BME280;66556;52.008;5.432;2023-03-23T04:55:21;100105.0;;;23.4;40.97
59654;BME280;66556;52.008;5.432;2023-03-23T04:56:57;100105.0;;;23.21;41.01
59654;BME280;66556;52.008;5.432;2023-03-23T04:58:33;100107.0;;;23.38;40.65
59654;BME280;66556;52.008;5.432;2023-03-23T05:00:11;100112.0;;;23.56;40.25
59654;BME280;66556;52.008;5.432;2023-03-23T05:03:23;100110.0;;;23.52;40.54
59654;BME280;66556;52.008;5.432;2023-03-23T05:04:59;100100.0;;;23.22;40.96
59654;BME280;66556;52.008;5.432;2023-03-23T05:06:35;100109.0;;;23.02;41.11
59654;BME280;66556;52.008;5.432;2023-03-23T05:09:48;100110.0;;;23.04;41.89
59654;BME280;66556;52.008;5.432;2023-03-23T05:11:24;100103.0;;;22.81;42.12
59654;BME280;66556;52.008;5.432;2023-03-23T05:13:01;100110.0;;;23.57;41.27
59654;BME280;66556;52.008;5.432;2023-03-23T05:16:16;100102.0;;;23.57;41.54
59654;BME280;66556;52.008;5.432;2023-03-23T05:17:52;100107.0;;;23.53;41.22
59654;BME280;66556;52.008;5.432;2023-03-23T05:19:28;100109.0;;;23.49;41.54
59654;BME280;66556;52.008;5.432;2023-03-23T05:21:04;100096.0;;;23.2;41.66
59654;BME280;66556;52.008;5.432;2023-03-23T05:24:17;100107.0;;;22.78;43.28
59654;BME280;66556;52.008;5.432;2023-03-23T05:25:54;100101.0;;;23.06;42.49
59654;BME280;66556;52.008;5.432;2023-03-23T05:27:31;100101.0;;;23.24;42.07
59654;BME280;66556;52.008;5.432;2023-03-23T05:30:43;100106.0;;;23.58;41.3
59654;BME280;66556;52.008;5.432;2023-03-23T05:32:19;100095.0;;;23.39;41.66
59654;BME280;66556;52.008;5.432;2023-03-23T05:33:55;100088.0;;;23.32;41.59
59654;BME280;66556;52.008;5.432;2023-03-23T05:37:08;100110.0;;;23.67;41.4
59654;BME280;66556;52.008;5.432;2023-03-23T05:38:45;100112.0;;;23.65;40.82
59654;BME280;66556;52.008;5.432;2023-03-23T05:40:21;100107.0;;;23.42;41.36
59654;BME280;66556;52.008;5.432;2023-03-23T05:43:34;100112.0;;;23.1;42.08
59654;BME280;66556;52.008;5.432;2023-03-23T05:45:10;100108.0;;;23.86;40.83
59654;BME280;66556;52.008;5.432;2023-03-23T05:46:47;100111.0;;;23.21;41.8
59654;BME280;66556;52.008;5.432;2023-03-23T05:48:24;100110.0;;;22.99;42.31
59654;BME280;66556;52.008;5.432;2023-03-23T05:51:37;100112.0;;;23.09;42.14
59654;BME280;66556;52.008;5.432;2023-03-23T05:53:13;100116.0;;;23.33;40.92
59654;BME280;66556;52.008;5.432;2023-03-23T05:54:49;100110.0;;;23.09;41.77
59654;BME280;66556;52.008;5.432;2023-03-23T05:58:02;100109.0;;;23.25;40.79
59654;BME280;66556;52.008;5.432;2023-03-23T05:59:38;100111.0;;;23.29;40.97
59654;BME280;66556;52.008;5.432;2023-03-23T06:01:14;100110.0;;;22.97;41.9
59654;BME280;66556;52.008;5.432;2023-03-23T06:04:30;100114.0;;;23.21;41.91
59654;BME280;66556;52.008;5.432;2023-03-23T06:06:09;100113.0;;;22.74;42.39
59654;BME280;66556;52.008;5.432;2023-03-23T06:07:46;100122.0;;;23.25;41.81
59654;BME280;66556;52.008;5.432;2023-03-23T06:09:22;100134.0;;;23.16;41.73
59654;BME280;66556;52.008;5.432;2023-03-23T06:12:35;100140.0;;;23.04;42.22
59654;BME280;66556;52.008;5.432;2023-03-23T06:14:11;100133.0;;;22.83;42.07
59654;BME280;66556;52.008;5.432;2023-03-23T06:15:48;100137.0;;;23.2;41.43
59654;BME280;66556;52.008;5.432;2023-03-23T06:19:00;100135.0;;;22.97;42.44
59654;BME280;66556;52.008;5.432;2023-03-23T06:20:36;100149.0;;;22.66;42.6
59654;BME280;66556;52.008;5.432;2023-03-23T06:22:12;100153.0;;;23.27;41.7
59654;BME280;66556;52.008;5.432;2023-03-23T06:23:49;100148.0;;;23.29;41.81
59654;BME280;66556;52.008;5.432;2023-03-23T06:27:02;100153.0;;;22.82;42.68
59654;BME280;66556;52.008;5.432;2023-03-23T06:28:38;100156.0;;;23.23;42.0
59654;BME280;66556;52.008;5.432;2023-03-23T06:30:14;100152.0;;;23.04;42.25
59654;BME280;66556;52.008;5.432;2023-03-23T06:33:33;100161.0;;;23.4;41.38
59654;BME280;66556;52.008;5.432;2023-03-23T06:35:10;100158.0;;;23.07;41.92
59654;BME280;66556;52.008;5.432;2023-03-23T06:36:46;100166.0;;;23.52;41.66
59654;BME280;66556;52.008;5.432;2023-03-23T06:39:59;100171.0;;;23.51;42.1
59654;BME280;66556;52.008;5.432;2023-03-23T06:41:36;100177.0;;;23.1;43.19
59654;BME280;66556;52.008;5.432;2023-03-23T06:43:12;100173.0;;;23.22;42.89
59654;BME280;66556;52.008;5.432;2023-03-23T06:44:49;100167.0;;;23.76;42.37
59654;BME280;66556;52.008;5.432;2023-03-23T06:48:01;100172.0;;;23.04;43.71
59654;BME280;66556;52.008;5.432;2023-03-23T06:49:38;100178.0;;;23.07;43.46
59654;BME280;66556;52.008;5.432;2023-03-23T06:51:13;100187.0;;;23.39;42.65
59654;BME280;66556;52.008;5.432;2023-03-23T06:54:27;100196.0;;;22.82;44.37
59654;BME280;66556;52.008;5.432;2023-03-23T06:56:03;100197.0;;;22.54;45.49
59654;BME280;66556;52.008;5.432;2023-03-23T06:57:39;100206.0;;;22.16;45.99
59654;BME280;66556;52.008;5.432;2023-03-23T07:00:54;100203.0;;;23.36;43.01
59654;BME280;66556;52.008;5.432;2023-03-23T07:02:29;100199.0;;;23.2;43.64
59654;BME280;66556;52.008;5.432;2023-03-23T07:04:06;100200.0;;;23.71;42.38
59654;BME280;66556;52.008;5.432;2023-03-23T07:05:45;100199.0;;;23.69;42.47
59654;BME280;66556;52.008;5.432;2023-03-23T07:08:58;100207.0;;;23.24;43.38
59654;BME280;66556;52.008;5.432;2023-03-23T07:10:34;100206.0;;;23.09;43.37
59654;BME280;66556;52.008;5.432;2023-03-23T07:12:10;100200.0;;;22.47;44.89
59654;BME280;66556;52.008;5.432;2023-03-23T07:15:23;100205.0;;;23.27;42.18
59654;BME280;66556;52.008;5.432;2023-03-23T07:16:58;100203.0;;;23.18;42.62
59654;BME280;66556;52.008;5.432;2023-03-23T07:18:35;100214.0;;;23.18;42.24
59654;BME280;66556;52.008;5.432;2023-03-23T07:21:48;100202.0;;;22.34;43.1
59654;BME280;66556;52.008;5.432;2023-03-23T07:23:24;100196.0;;;23.06;42.25
59654;BME280;66556;52.008;5.432;2023-03-23T07:25:00;100215.0;;;23.44;41.51
59654;BME280;66556;52.008;5.432;2023-03-23T07:26:36;100217.0;;;22.88;42.6
59654;BME280;66556;52.008;5.432;2023-03-23T07:29:49;100217.0;;;23.34;41.36
59654;BME280;66556;52.008;5.432;2023-03-23T07:31:26;100224.0;;;23.38;41.38
59654;BME280;66556;52.008;5.432;2023-03-23T07:33:04;100221.0;;;23.06;42.27
59654;BME280;66556;52.008;5.432;2023-03-23T07:36:17;100217.0;;;23.18;41.84
59654;BME280;66556;52.008;5.432;2023-03-23T07:37:53;100225.0;;;23.08;42.27
59654;BME280;66556;52.008;5.432;2023-03-23T07:39:29;100225.0;;;23.46;41.39
59654;BME280;66556;52.008;5.432;2023-03-23T07:42:44;100223.0;;;23.09;42.48
59654;BME280;66556;52.008;5.432;2023-03-23T07:44:21;100226.0;;;23.36;41.94
59654;BME280;66556;52.008;5.432;2023-03-23T07:45:58;100231.0;;;23.94;41.28
59654;BME280;66556;52.008;5.432;2023-03-23T07:47:34;100225.0;;;23.0;43.15
59654;BME280;66556;52.008;5.432;2023-03-23T07:50:46;100234.0;;;22.95;43.62
59654;BME280;66556;52.008;5.432;2023-03-23T07:52:23;100230.0;;;22.82;43.91
59654;BME280;66556;52.008;5.432;2023-03-23T07:53:59;100235.0;;;22.79;44.28
59654;BME280;66556;52.008;5.432;2023-03-23T07:57:11;100246.0;;;22.26;45.68
59654;BME280;66556;52.008;5.432;2023-03-23T07:58:48;100239.0;;;22.63;45.09
59654;BME280;66556;52.008;5.432;2023-03-23T08:00:25;100240.0;;;22.43;45.33
59654;BME280;66556;52.008;5.432;2023-03-23T08:03:38;100253.0;;;22.39;45.8
59654;BME280;66556;52.008;5.432;2023-03-23T08:05:14;100240.0;;;22.62;45.24
59654;BME280;66556;52.008;5.432;2023-03-23T08:06:51;100243.0;;;22.71;45.58
59654;BME280;66556;52.008;5.432;2023-03-23T08:08:27;100246.0;;;22.28;45.73
59654;BME280;66556;52.008;5.432;2023-03-23T08:11:40;100255.0;;;22.7;45.13
59654;BME280;66556;52.008;5.432;2023-03-23T08:13:18;100261.0;;;22.84;44.95
59654;BME280;66556;52.008;5.432;2023-03-23T08:14:54;100272.0;;;22.23;45.91
59654;BME280;66556;52.008;5.432;2023-03-23T08:18:06;100281.0;;;22.32;46.09
59654;BME280;66556;52.008;5.432;2023-03-23T08:19:43;100286.0;;;21.93;46.94
59654;BME280;66556;52.008;5.432;2023-03-23T08:21:19;100278.0;;;22.67;45.38
59654;BME280;66556;52.008;5.432;2023-03-23T08:24:32;100289.0;;;22.38;45.96
59654;BME280;66556;52.008;5.432;2023-03-23T08:26:09;100277.0;;;22.28;45.92
59654;BME280;66556;52.008;5.432;2023-03-23T08:27:46;100259.0;;;22.24;46.65
59654;BME280;66556;52.008;5.432;2023-03-23T08:29:23;100250.0;;;23.05;44.62
59654;BME280;66556;52.008;5.432;2023-03-23T08:32:36;100255.0;;;22.52;45.62
59654;BME280;66556;52.008;5.432;2023-03-23T08:34:13;100257.0;;;22.81;45.11
59654;BME280;66556;52.008;5.432;2023-03-23T08:35:55;100271.0;;;22.64;45.92
59654;BME280;66556;52.008;5.432;2023-03-23T08:39:08;100269.0;;;22.6;45.94
59654;BME280;66556;52.008;5.432;2023-03-23T08:40:44;100274.0;;;23.09;44.03
59654;BME280;66556;52.008;5.432;2023-03-23T08:42:20;100267.0;;;22.9;45.11
59654;BME280;66556;52.008;5.432;2023-03-23T08:45:32;100273.0;;;22.6;45.81
59654;BME280;66556;52.008;5.432;2023-03-23T08:47:08;100275.0;;;22.6;45.43
59654;BME280;66556;52.008;5.432;2023-03-23T08:48:45;100273.0;;;23.61;43.38
59654;BME280;66556;52.008;5.432;2023-03-23T08:50:24;100274.0;;;22.89;43.8
59654;BME280;66556;52.008;5.432;2023-03-23T08:53:38;100275.0;;;23.38;43.84
59654;BME280;66556;52.008;5.432;2023-03-23T08:55:15;100276.0;;;23.18;43.82
59654;BME280;66556;52.008;5.432;2023-03-23T08:56:52;100283.0;;;22.88;43.73
59654;BME280;66556;52.008;5.432;2023-03-23T09:00:08;100285.0;;;22.84;43.63
59654;BME280;66556;52.008;5.432;2023-03-23T09:01:45;100280.0;;;23.02;44.54
59654;BME280;66556;52.008;5.432;2023-03-23T09:03:21;100291.0;;;23.18;43.68
59654;BME280;66556;52.008;5.432;2023-03-23T09:04:57;100297.0;;;23.85;43.15
59654;BME280;66556;52.008;5.432;2023-03-23T09:08:10;100296.0;;;24.01;42.13
59654;BME280;66556;52.008;5.432;2023-03-23T09:09:47;100301.0;;;24.13;42.26
59654;BME280;66556;52.008;5.432;2023-03-23T09:11:23;100299.0;;;24.25;40.89
59654;BME280;66556;52.008;5.432;2023-03-23T09:14:36;100294.0;;;24.91;40.39
59654;BME280;66556;52.008;5.432;2023-03-23T09:16:13;100297.0;;;25.07;39.62
59654;BME280;66556;52.008;5.432;2023-03-23T09:17:50;100302.0;;;24.14;42.34
59654;BME280;66556;52.008;5.432;2023-03-23T09:21:05;100294.0;;;23.92;41.79
59654;BME280;66556;52.008;5.432;2023-03-23T09:22:43;100287.0;;;23.81;42.55
59654;BME280;66556;52.008;5.432;2023-03-23T09:24:21;100281.0;;;23.09;43.31
59654;BME280;66556;52.008;5.432;2023-03-23T09:25:59;100294.0;;;24.57;42.28
59654;BME280;66556;52.008;5.432;2023-03-23T09:29:14;100294.0;;;24.7;40.04
59654;BME280;66556;52.008;5.432;2023-03-23T09:30:50;100296.0;;;25.0;39.92
59654;BME280;66556;52.008;5.432;2023-03-23T09:32:26;100300.0;;;24.85;39.57
59654;BME280;66556;52.008;5.432;2023-03-23T09:35:39;100309.0;;;24.42;40.14
59654;BME280;66556;52.008;5.432;2023-03-23T09:37:15;100306.0;;;25.14;38.35
59654;BME280;66556;52.008;5.432;2023-03-23T09:38:52;100302.0;;;25.36;38.51
59654;BME280;66556;52.008;5.432;2023-03-23T09:40:33;100306.0;;;24.54;38.83
59654;BME280;66556;52.008;5.432;2023-03-23T09:44:19;100302.0;;;25.15;38.24
59654;BME280;66556;52.008;5.432;2023-03-23T09:46:06;100313.0;;;24.65;38.49
59654;BME280;66556;52.008;5.432;2023-03-23T09:48:29;100320.0;;;25.01;39.6
59654;BME280;66556;52.008;5.432;2023-03-23T09:50:10;100305.0;;;24.6;39.35
59654;BME280;66556;52.008;5.432;2023-03-23T09:51:51;100308.0;;;25.98;38.53
59654;BME280;66556;52.008;5.432;2023-03-23T09:53:33;100314.0;;;26.15;36.72
59654;BME280;66556;52.008;5.432;2023-03-23T09:55:16;100313.0;;;25.45;37.15
59654;BME280;66556;52.008;5.432;2023-03-23T09:58:35;100324.0;;;25.64;37.74
59654;BME280;66556;52.008;5.432;2023-03-23T10:00:21;100322.0;;;26.12;37.65
59654;BME280;66556;52.008;5.432;2023-03-23T10:02:14;100322.0;;;26.35;35.99
59654;BME280;66556;52.008;5.432;2023-03-23T10:04:01;100336.0;;;26.71;35.39
59654;BME280;66556;52.008;5.432;2023-03-23T10:05:53;100328.0;;;26.72;35.39
59654;BME280;66556;52.008;5.432;2023-03-23T10:09:08;100341.0;;;26.36;35.1
59654;BME280;66556;52.008;5.432;2023-03-23T10:10:58;100344.0;;;26.27;34.81
59654;BME280;66556;52.008;5.432;2023-03-23T10:12:42;100343.0;;;25.72;34.64
59654;BME280;66556;52.008;5.432;2023-03-23T10:14:32;100338.0;;;25.59;36.04
59654;BME280;66556;52.008;5.432;2023-03-23T10:16:20;100355.0;;;26.07;35.06
59654;BME280;66556;52.008;5.432;2023-03-23T10:19:53;100345.0;;;25.88;35.21
59654;BME280;66556;52.008;5.432;2023-03-23T10:21:52;100360.0;;;25.32;35.46
59654;BME280;66556;52.008;5.432;2023-03-23T10:23:46;100352.0;;;26.23;36.18
59654;BME280;66556;52.008;5.432;2023-03-23T10:25:30;100345.0;;;25.96;34.96
59654;BME280;66556;52.008;5.432;2023-03-23T10:27:18;100356.0;;;26.03;35.94
59654;BME280;66556;52.008;5.432;2023-03-23T10:28:58;100351.0;;;26.64;35.29
59654;BME280;66556;52.008;5.432;2023-03-23T10:32:19;100355.0;;;26.53;35.4
59654;BME280;66556;52.008;5.432;2023-03-23T10:34:02;100347.0;;;27.29;33.96
59654;BME280;66556;52.008;5.432;2023-03-23T10:35:44;100355.0;;;26.95;32.61
59654;BME280;66556;52.008;5.432;2023-03-23T10:37:37;100352.0;;;27.65;32.62
59654;BME280;66556;52.008;5.432;2023-03-23T10:39:18;100366.0;;;26.99;31.73
59654;BME280;66556;52.008;5.432;2023-03-23T10:42:41;100356.0;;;26.18;31.98
59654;BME280;66556;52.008;5.432;2023-03-23T10:44:21;100365.0;;;24.96;34.11
59654;BME280;66556;52.008;5.432;2023-03-23T10:46:02;100363.0;;;25.78;34.06
59654;BME280;66556;52.008;5.432;2023-03-23T10:47:51;100357.0;;;26.01;33.96
59654;BME280;66556;52.008;5.432;2023-03-23T10:49:36;100358.0;;;26.52;33.07
59654;BME280;66556;52.008;5.432;2023-03-23T10:52:57;100361.0;;;26.39;32.99
59654;BME280;66556;52.008;5.432;2023-03-23T10:54:37;100355.0;;;26.2;33.56
59654;BME280;66556;52.008;5.432;2023-03-23T10:56:24;100359.0;;;26.31;33.17
59654;BME280;66556;52.008;5.432;2023-03-23T10:58:04;100361.0;;;26.18;34.79
59654;BME280;66556;52.008;5.432;2023-03-23T11:01:18;100365.0;;;26.26;33.5
59654;BME280;66556;52.008;5.432;2023-03-23T11:02:59;100352.0;;;25.73;34.4
59654;BME280;66556;52.008;5.432;2023-03-23T11:04:37;100360.0;;;26.05;33.14
59654;BME280;66556;52.008;5.432;2023-03-23T11:07:59;100359.0;;;25.58;33.44
59654;BME280;66556;52.008;5.432;2023-03-23T11:09:37;100365.0;;;25.92;33.39